createdAt,value
2019-02-27T00:00:15.871Z,7.13
2019-02-27T00:01:16.932Z,7.25
2019-02-27T00:02:15.895Z,7.23
2019-02-27T00:03:15.906Z,7.28
2019-02-27T00:04:15.917Z,7.28
2019-02-27T00:05:15.932Z,7.31
2019-02-27T00:06:16.075Z,7.24
2019-02-27T00:07:15.954Z,7.25
2019-02-27T00:08:15.967Z,7.25
2019-02-27T00:09:15.978Z,7.27
2019-02-27T00:10:15.991Z,7.24
2019-02-27T00:11:15.999Z,7.16
2019-02-27T00:12:16.898Z,7.15
2019-02-27T00:13:16.024Z,7.10
2019-02-27T00:14:16.040Z,7.09
2019-02-27T00:15:16.047Z,7.16
2019-02-27T00:16:16.063Z,7.20
2019-02-27T00:17:18.089Z,7.24
2019-02-27T00:18:16.087Z,7.20
2019-02-27T00:19:16.098Z,7.24
2019-02-27T00:20:16.108Z,7.24
2019-02-27T00:21:16.123Z,7.25
2019-02-27T00:22:17.723Z,7.15
2019-02-27T00:23:16.143Z,7.15
2019-02-27T00:24:16.158Z,7.13
2019-02-27T00:25:16.175Z,7.15
2019-02-27T00:26:16.185Z,7.07
2019-02-27T00:27:16.193Z,7.13
2019-02-27T00:28:16.205Z,7.15
2019-02-27T00:29:16.225Z,7.16
2019-02-27T00:30:16.229Z,7.12
2019-02-27T00:31:16.245Z,7.12
2019-02-27T00:32:18.502Z,7.13
2019-02-27T00:33:16.271Z,7.12
2019-02-27T00:34:16.281Z,7.12
2019-02-27T00:35:16.288Z,7.10
2019-02-27T00:36:16.307Z,7.06
2019-02-27T00:37:18.733Z,7.09
2019-02-27T00:38:16.325Z,6.99
2019-02-27T00:39:16.348Z,7.09
2019-02-27T00:40:16.355Z,7.10
2019-02-27T00:41:16.364Z,7.12
2019-02-27T00:42:19.543Z,7.10
2019-02-27T00:43:16.388Z,7.05
2019-02-27T00:44:16.405Z,7.12
2019-02-27T00:45:16.416Z,7.03
2019-02-27T00:46:16.425Z,6.99
2019-02-27T00:47:17.034Z,7.02
2019-02-27T00:48:16.449Z,7.06
2019-02-27T00:49:16.459Z,6.95
2019-02-27T00:50:16.470Z,6.98
2019-02-27T00:51:16.485Z,6.97
2019-02-27T00:52:18.248Z,6.99
2019-02-27T00:53:16.509Z,6.98
2019-02-27T00:54:16.522Z,6.97
2019-02-27T00:55:16.533Z,6.97
2019-02-27T00:56:16.544Z,6.92
2019-02-27T00:57:20.492Z,6.94
2019-02-27T00:58:16.586Z,6.92
2019-02-27T00:59:16.580Z,6.95
2019-02-27T01:00:16.589Z,6.85
2019-02-27T01:01:16.605Z,6.94
2019-02-27T01:02:20.026Z,6.92
2019-02-27T01:03:16.624Z,6.84
2019-02-27T01:04:16.641Z,6.84
2019-02-27T01:05:16.655Z,6.89
2019-02-27T01:06:16.663Z,6.81
2019-02-27T01:07:20.255Z,6.81
2019-02-27T01:08:16.687Z,6.87
2019-02-27T01:09:16.696Z,6.80
2019-02-27T01:10:16.710Z,6.77
2019-02-27T01:11:18.495Z,6.79
2019-02-27T01:12:16.765Z,6.77
2019-02-27T01:13:16.746Z,6.74
2019-02-27T01:14:16.756Z,6.81
2019-02-27T01:15:16.769Z,6.71
2019-02-27T01:16:17.263Z,6.74
2019-02-27T01:17:16.794Z,6.73
2019-02-27T01:18:16.800Z,6.77
2019-02-27T01:19:16.817Z,6.70
2019-02-27T01:20:16.827Z,6.81
2019-02-27T01:21:19.178Z,6.77
2019-02-27T01:22:16.851Z,6.77
2019-02-27T01:23:16.858Z,6.70
2019-02-27T01:24:17.455Z,6.76
2019-02-27T01:25:16.886Z,6.76
2019-02-27T01:26:16.892Z,6.61
2019-02-27T01:27:16.903Z,6.64
2019-02-27T01:28:16.920Z,6.70
2019-02-27T01:29:18.091Z,6.69
2019-02-27T01:30:16.941Z,6.59
2019-02-27T01:31:16.950Z,6.59
2019-02-27T01:32:16.967Z,6.67
2019-02-27T01:33:16.975Z,6.62
2019-02-27T01:34:16.986Z,6.67
2019-02-27T01:35:18.787Z,6.66
2019-02-27T01:36:17.012Z,6.66
2019-02-27T01:37:17.020Z,6.61
2019-02-27T01:38:17.032Z,6.54
2019-02-27T01:39:17.043Z,6.59
2019-02-27T01:40:18.081Z,6.48
2019-02-27T01:41:17.067Z,6.49
2019-02-27T01:42:17.083Z,6.55
2019-02-27T01:43:17.090Z,6.44
2019-02-27T01:44:17.102Z,6.43
2019-02-27T01:45:20.741Z,6.54
2019-02-27T01:46:17.125Z,6.36
2019-02-27T01:47:17.137Z,6.49
2019-02-27T01:48:17.153Z,6.38
2019-02-27T01:49:17.161Z,6.37
2019-02-27T01:50:17.173Z,6.41
2019-02-27T01:51:17.184Z,6.38
2019-02-27T01:52:17.195Z,6.34
2019-02-27T01:53:17.206Z,6.40
2019-02-27T01:54:17.227Z,6.38
2019-02-27T01:55:17.234Z,6.36
2019-02-27T01:56:17.246Z,6.28
2019-02-27T01:57:17.259Z,6.28
2019-02-27T01:58:17.264Z,6.30
2019-02-27T01:59:17.804Z,6.28
2019-02-27T02:00:17.290Z,6.30
2019-02-27T02:01:17.305Z,6.22
2019-02-27T02:02:17.314Z,6.33
2019-02-27T02:03:17.325Z,6.28
2019-02-27T02:04:20.070Z,6.25
2019-02-27T02:05:17.345Z,6.22
2019-02-27T02:06:17.358Z,6.21
2019-02-27T02:07:17.368Z,6.21
2019-02-27T02:08:17.385Z,6.21
2019-02-27T02:09:21.066Z,6.21
2019-02-27T02:10:17.407Z,6.21
2019-02-27T02:11:17.414Z,6.21
2019-02-27T02:12:17.426Z,6.19
2019-02-27T02:13:17.444Z,6.17
2019-02-27T02:14:20.988Z,6.12
2019-02-27T02:15:17.461Z,6.11
2019-02-27T02:16:17.475Z,6.09
2019-02-27T02:17:17.481Z,6.08
2019-02-27T02:18:17.496Z,6.09
2019-02-27T02:19:18.953Z,6.08
2019-02-27T02:20:17.518Z,6.12
2019-02-27T02:21:17.527Z,6.06
2019-02-27T02:22:17.540Z,6.03
2019-02-27T02:23:17.552Z,6.04
2019-02-27T02:24:20.897Z,6.08
2019-02-27T02:25:17.575Z,6.09
2019-02-27T02:26:17.583Z,6.04
2019-02-27T02:27:17.594Z,6.04
2019-02-27T02:28:17.609Z,6.01
2019-02-27T02:29:17.944Z,5.97
2019-02-27T02:30:17.628Z,6.08
2019-02-27T02:31:17.644Z,6.00
2019-02-27T02:32:18.165Z,6.04
2019-02-27T02:33:17.667Z,6.00
2019-02-27T02:34:17.671Z,6.01
2019-02-27T02:35:17.686Z,6.08
2019-02-27T02:36:17.697Z,6.08
2019-02-27T02:37:17.710Z,6.08
2019-02-27T02:38:17.728Z,6.12
2019-02-27T02:39:19.249Z,6.22
2019-02-27T02:40:17.744Z,6.19
2019-02-27T02:41:17.755Z,6.18
2019-02-27T02:42:17.774Z,6.11
2019-02-27T02:43:17.775Z,6.17
2019-02-27T02:44:20.658Z,6.18
2019-02-27T02:45:17.800Z,6.18
2019-02-27T02:46:17.809Z,6.25
2019-02-27T02:47:21.055Z,6.22
2019-02-27T02:48:17.827Z,6.21
2019-02-27T02:49:17.837Z,6.22
2019-02-27T02:50:18.514Z,6.28
2019-02-27T02:51:17.878Z,6.27
2019-02-27T02:52:17.881Z,6.28
2019-02-27T02:53:17.888Z,6.30
2019-02-27T02:54:17.899Z,6.34
2019-02-27T02:55:17.907Z,6.25
2019-02-27T02:56:23.689Z,6.27
2019-02-27T02:57:17.931Z,6.33
2019-02-27T02:58:17.957Z,6.33
2019-02-27T02:59:24.530Z,6.34
2019-02-27T03:00:17.962Z,6.27
2019-02-27T03:01:17.972Z,6.28
2019-02-27T03:02:23.460Z,6.28
2019-02-27T03:03:17.994Z,6.19
2019-02-27T03:04:18.004Z,6.22
2019-02-27T03:05:23.338Z,6.21
2019-02-27T03:06:18.026Z,6.15
2019-02-27T03:07:18.050Z,6.14
2019-02-27T03:08:20.157Z,6.14
2019-02-27T03:09:18.068Z,6.11
2019-02-27T03:10:18.089Z,6.17
2019-02-27T03:11:19.285Z,6.09
2019-02-27T03:12:18.099Z,6.06
2019-02-27T03:13:18.108Z,6.04
2019-02-27T03:14:18.623Z,6.01
2019-02-27T03:15:18.128Z,6.03
2019-02-27T03:16:18.141Z,5.97
2019-02-27T03:17:19.230Z,5.99
2019-02-27T03:18:18.165Z,5.93
2019-02-27T03:19:18.171Z,5.97
2019-02-27T03:20:18.188Z,5.97
2019-02-27T03:21:18.203Z,6.01
2019-02-27T03:22:18.208Z,5.90
2019-02-27T03:23:18.217Z,6.00
2019-02-27T03:24:18.236Z,6.00
2019-02-27T03:25:18.244Z,6.00
2019-02-27T03:26:18.271Z,5.99
2019-02-27T03:27:18.265Z,6.00
2019-02-27T03:28:18.276Z,5.91
2019-02-27T03:29:18.285Z,5.99
2019-02-27T03:30:18.302Z,6.00
2019-02-27T03:31:19.201Z,5.94
2019-02-27T03:32:18.323Z,6.00
2019-02-27T03:33:24.451Z,5.99
2019-02-27T03:34:18.347Z,5.96
2019-02-27T03:35:18.361Z,5.94
2019-02-27T03:36:18.366Z,6.01
2019-02-27T03:37:18.376Z,6.03
2019-02-27T03:38:23.839Z,6.11
2019-02-27T03:39:18.398Z,6.12
2019-02-27T03:40:18.410Z,6.14
2019-02-27T03:41:22.550Z,6.21
2019-02-27T03:42:18.431Z,6.25
2019-02-27T03:43:18.441Z,6.12
2019-02-27T03:44:20.723Z,6.09
2019-02-27T03:45:18.462Z,6.21
2019-02-27T03:46:18.472Z,6.14
2019-02-27T03:47:18.489Z,6.15
2019-02-27T03:48:18.499Z,6.11
2019-02-27T03:49:18.508Z,6.18
2019-02-27T03:50:18.517Z,6.22
2019-02-27T03:51:24.336Z,6.12
2019-02-27T03:52:18.541Z,6.12
2019-02-27T03:53:18.554Z,6.12
2019-02-27T03:54:21.327Z,6.04
2019-02-27T03:55:18.576Z,6.12
2019-02-27T03:56:18.588Z,6.09
2019-02-27T03:57:20.132Z,6.09
2019-02-27T03:58:18.613Z,6.11
2019-02-27T03:59:18.617Z,6.15
2019-02-27T04:00:19.389Z,6.03
2019-02-27T04:01:18.646Z,6.06
2019-02-27T04:02:18.656Z,6.09
2019-02-27T04:03:18.747Z,6.14
2019-02-27T04:04:18.675Z,6.01
2019-02-27T04:05:18.686Z,6.03
2019-02-27T04:06:21.311Z,6.04
2019-02-27T04:07:18.720Z,6.06
2019-02-27T04:08:18.738Z,6.06
2019-02-27T04:09:20.108Z,6.04
2019-02-27T04:10:18.742Z,5.94
2019-02-27T04:11:18.751Z,5.96
2019-02-27T04:12:18.764Z,5.94
2019-02-27T04:13:18.771Z,5.96
2019-02-27T04:14:18.784Z,5.97
2019-02-27T04:15:18.930Z,5.99
2019-02-27T04:16:18.809Z,5.93
2019-02-27T04:17:18.829Z,5.89
2019-02-27T04:18:18.830Z,5.86
2019-02-27T04:19:18.838Z,5.90
2019-02-27T04:20:18.852Z,5.91
2019-02-27T04:21:24.998Z,5.89
2019-02-27T04:22:18.874Z,5.89
2019-02-27T04:23:18.884Z,5.81
2019-02-27T04:24:22.168Z,5.79
2019-02-27T04:25:18.901Z,5.78
2019-02-27T04:26:19.468Z,5.83
2019-02-27T04:27:21.272Z,5.85
2019-02-27T04:28:18.937Z,5.82
2019-02-27T04:29:18.948Z,5.81
2019-02-27T04:30:18.959Z,5.85
2019-02-27T04:31:18.968Z,5.82
2019-02-27T04:32:18.977Z,5.82
2019-02-27T04:33:22.849Z,5.79
2019-02-27T04:34:19.005Z,5.76
2019-02-27T04:35:19.010Z,5.82
2019-02-27T04:36:19.024Z,5.81
2019-02-27T04:37:20.408Z,5.82
2019-02-27T04:38:19.047Z,5.81
2019-02-27T04:39:19.051Z,5.78
2019-02-27T04:40:19.063Z,5.78
2019-02-27T04:41:19.076Z,5.75
2019-02-27T04:42:19.084Z,5.75
2019-02-27T04:43:19.115Z,5.79
2019-02-27T04:44:19.109Z,5.83
2019-02-27T04:45:19.117Z,5.75
2019-02-27T04:46:21.565Z,5.82
2019-02-27T04:47:19.139Z,5.81
2019-02-27T04:48:19.150Z,5.79
2019-02-27T04:49:19.164Z,5.79
2019-02-27T04:50:19.171Z,5.82
2019-02-27T04:51:19.182Z,5.79
2019-02-27T04:52:19.198Z,5.93
2019-02-27T04:53:19.205Z,5.90
2019-02-27T04:54:19.213Z,5.96
2019-02-27T04:55:19.226Z,5.94
2019-02-27T04:56:23.161Z,5.89
2019-02-27T04:57:19.247Z,5.91
2019-02-27T04:58:19.260Z,5.83
2019-02-27T04:59:19.351Z,5.83
2019-02-27T05:00:19.279Z,5.78
2019-02-27T05:01:19.290Z,5.82
2019-02-27T05:02:19.302Z,5.82
2019-02-27T05:03:19.313Z,5.78
2019-02-27T05:04:19.321Z,5.82
2019-02-27T05:05:19.334Z,5.76
2019-02-27T05:06:19.345Z,5.79
2019-02-27T05:07:20.358Z,5.81
2019-02-27T05:08:19.368Z,5.75
2019-02-27T05:09:19.381Z,5.79
2019-02-27T05:10:19.387Z,5.76
2019-02-27T05:11:19.401Z,5.76
2019-02-27T05:12:19.409Z,5.74
2019-02-27T05:13:20.893Z,5.78
2019-02-27T05:14:19.431Z,5.68
2019-02-27T05:15:19.443Z,5.67
2019-02-27T05:16:19.471Z,5.78
2019-02-27T05:17:21.473Z,5.71
2019-02-27T05:18:19.472Z,5.74
2019-02-27T05:19:19.533Z,5.78
2019-02-27T05:20:19.493Z,5.75
2019-02-27T05:21:19.804Z,5.75
2019-02-27T05:22:19.516Z,5.71
2019-02-27T05:23:19.529Z,5.78
2019-02-27T05:24:19.538Z,5.79
2019-02-27T05:25:19.549Z,5.81
2019-02-27T05:26:19.558Z,5.82
2019-02-27T05:27:19.571Z,5.75
2019-02-27T05:28:19.585Z,5.75
2019-02-27T05:29:19.591Z,5.78
2019-02-27T05:30:19.605Z,5.74
2019-02-27T05:31:19.612Z,5.81
2019-02-27T05:32:19.623Z,5.82
2019-02-27T05:33:19.634Z,5.79
2019-02-27T05:34:19.647Z,5.90
2019-02-27T05:35:23.549Z,5.89
2019-02-27T05:36:19.672Z,6.03
2019-02-27T05:37:19.692Z,5.99
2019-02-27T05:38:19.692Z,6.00
2019-02-27T05:39:19.699Z,5.96
2019-02-27T05:40:19.710Z,5.90
2019-02-27T05:41:19.729Z,5.90
2019-02-27T05:42:19.730Z,5.90
2019-02-27T05:43:19.748Z,5.83
2019-02-27T05:44:22.102Z,5.89
2019-02-27T05:45:19.768Z,5.82
2019-02-27T05:46:19.780Z,5.86
2019-02-27T05:47:19.785Z,5.81
2019-02-27T05:48:20.188Z,5.76
2019-02-27T05:49:19.806Z,5.82
2019-02-27T05:50:19.820Z,5.83
2019-02-27T05:51:19.830Z,5.83
2019-02-27T05:52:19.839Z,5.82
2019-02-27T05:53:22.082Z,5.81
2019-02-27T05:54:19.860Z,5.81
2019-02-27T05:55:19.874Z,5.79
2019-02-27T05:56:19.887Z,5.74
2019-02-27T05:57:21.096Z,5.78
2019-02-27T05:58:22.869Z,5.76
2019-02-27T05:59:19.913Z,5.65
2019-02-27T06:00:19.925Z,5.63
2019-02-27T06:01:19.935Z,5.71
2019-02-27T06:02:19.948Z,5.68
2019-02-27T06:03:19.964Z,5.65
2019-02-27T06:04:19.971Z,5.65
2019-02-27T06:05:19.977Z,5.64
2019-02-27T06:06:19.988Z,5.65
2019-02-27T06:07:20.001Z,5.71
2019-02-27T06:08:20.003Z,5.68
2019-02-27T06:09:20.009Z,5.61
2019-02-27T06:10:20.886Z,5.64
2019-02-27T06:11:20.031Z,5.68
2019-02-27T06:12:20.054Z,5.68
2019-02-27T06:13:20.053Z,5.64
2019-02-27T06:14:21.390Z,5.64
2019-02-27T06:15:20.079Z,5.75
2019-02-27T06:16:20.087Z,5.82
2019-02-27T06:17:20.146Z,5.78
2019-02-27T06:18:22.735Z,5.79
2019-02-27T06:19:20.119Z,5.90
2019-02-27T06:20:20.110Z,5.96
2019-02-27T06:21:20.137Z,6.00
2019-02-27T06:22:20.130Z,5.91
2019-02-27T06:23:20.138Z,5.91
2019-02-27T06:24:20.152Z,6.03
2019-02-27T06:25:23.463Z,5.85
2019-02-27T06:26:20.174Z,5.93
2019-02-27T06:27:20.181Z,5.93
2019-02-27T06:28:20.192Z,5.90
2019-02-27T06:29:23.283Z,5.90
2019-02-27T06:30:20.214Z,5.89
2019-02-27T06:31:20.226Z,5.85
2019-02-27T06:32:20.236Z,5.83
2019-02-27T06:33:20.251Z,5.79
2019-02-27T06:34:22.343Z,5.85
2019-02-27T06:35:20.264Z,5.82
2019-02-27T06:36:20.276Z,5.91
2019-02-27T06:37:20.289Z,5.85
2019-02-27T06:38:20.296Z,5.76
2019-02-27T06:39:20.312Z,5.81
2019-02-27T06:40:20.318Z,5.82
2019-02-27T06:41:20.331Z,5.81
2019-02-27T06:42:20.372Z,5.79
2019-02-27T06:43:20.350Z,5.81
2019-02-27T06:44:20.369Z,5.75
2019-02-27T06:45:20.370Z,5.83
2019-02-27T06:46:20.782Z,5.76
2019-02-27T06:47:20.397Z,5.93
2019-02-27T06:48:20.403Z,5.89
2019-02-27T06:49:20.414Z,5.91
2019-02-27T06:50:22.976Z,5.85
2019-02-27T06:51:20.440Z,5.90
2019-02-27T06:52:20.446Z,5.93
2019-02-27T06:53:20.460Z,5.89
2019-02-27T06:54:20.471Z,5.85
2019-02-27T06:55:20.484Z,5.85
2019-02-27T06:56:20.489Z,5.86
2019-02-27T06:57:20.499Z,5.89
2019-02-27T06:58:20.513Z,5.89
2019-02-27T06:59:24.613Z,5.89
2019-02-27T07:00:20.539Z,5.85
2019-02-27T07:01:20.548Z,5.97
2019-02-27T07:02:21.673Z,5.99
2019-02-27T07:03:20.567Z,6.00
2019-02-27T07:04:20.575Z,5.99
2019-02-27T07:05:20.592Z,5.99
2019-02-27T07:06:21.665Z,6.03
2019-02-27T07:07:20.610Z,6.04
2019-02-27T07:08:20.617Z,6.03
2019-02-27T07:09:20.631Z,6.03
2019-02-27T07:10:20.740Z,6.04
2019-02-27T07:11:20.650Z,6.09
2019-02-27T07:12:21.808Z,6.01
2019-02-27T07:13:21.635Z,6.01
2019-02-27T07:14:20.682Z,6.06
2019-02-27T07:15:20.696Z,6.06
2019-02-27T07:16:22.945Z,6.09
2019-02-27T07:17:20.719Z,6.18
2019-02-27T07:18:20.727Z,6.18
2019-02-27T07:19:20.741Z,6.18
2019-02-27T07:20:23.875Z,6.28
2019-02-27T07:21:20.763Z,6.22
2019-02-27T07:22:20.775Z,6.30
2019-02-27T07:23:23.669Z,6.30
2019-02-27T07:24:20.798Z,6.30
2019-02-27T07:25:20.809Z,6.25
2019-02-27T07:26:20.812Z,6.28
2019-02-27T07:27:20.824Z,6.30
2019-02-27T07:28:20.836Z,6.30
2019-02-27T07:29:22.074Z,6.22
2019-02-27T07:30:20.877Z,6.28
2019-02-27T07:31:20.877Z,6.30
2019-02-27T07:32:20.880Z,6.36
2019-02-27T07:33:20.901Z,6.36
2019-02-27T07:34:20.900Z,6.37
2019-02-27T07:35:25.393Z,6.36
2019-02-27T07:36:20.922Z,6.40
2019-02-27T07:37:20.936Z,6.34
2019-02-27T07:38:21.733Z,6.48
2019-02-27T07:39:20.959Z,6.49
2019-02-27T07:40:20.966Z,6.44
2019-02-27T07:41:21.083Z,6.49
2019-02-27T07:42:20.988Z,6.48
2019-02-27T07:43:20.999Z,6.34
2019-02-27T07:44:21.010Z,6.44
2019-02-27T07:45:22.702Z,6.43
2019-02-27T07:46:22.517Z,6.46
2019-02-27T07:47:21.061Z,6.44
2019-02-27T07:48:21.056Z,6.37
2019-02-27T07:49:21.072Z,6.36
2019-02-27T07:50:21.083Z,6.36
2019-02-27T07:51:23.288Z,6.33
2019-02-27T07:52:21.102Z,6.36
2019-02-27T07:53:21.114Z,6.37
2019-02-27T07:54:21.128Z,6.40
2019-02-27T07:55:22.767Z,6.38
2019-02-27T07:56:21.145Z,6.54
2019-02-27T07:57:21.157Z,6.51
2019-02-27T07:58:21.170Z,6.58
2019-02-27T07:59:21.183Z,6.74
2019-02-27T08:00:21.191Z,7.12
2019-02-27T08:01:23.532Z,7.31
2019-02-27T08:02:21.211Z,7.60
2019-02-27T08:03:21.228Z,8.00
2019-02-27T08:04:23.022Z,8.02
2019-02-27T08:05:21.247Z,8.16
2019-02-27T08:06:23.460Z,8.23
2019-02-27T08:07:21.268Z,8.26
2019-02-27T08:08:23.739Z,8.47
2019-02-27T08:09:21.291Z,8.61
2019-02-27T08:10:21.303Z,8.59
2019-02-27T08:11:21.317Z,8.59
2019-02-27T08:12:21.325Z,8.61
2019-02-27T08:13:21.339Z,8.62
2019-02-27T08:14:21.355Z,8.65
2019-02-27T08:15:21.363Z,8.70
2019-02-27T08:16:21.943Z,8.71
2019-02-27T08:17:21.389Z,8.76
2019-02-27T08:18:29.802Z,9.01
2019-02-27T08:19:21.414Z,9.24
2019-02-27T08:20:21.420Z,9.38
2019-02-27T08:21:21.431Z,9.38
2019-02-27T08:22:21.445Z,9.38
2019-02-27T08:23:21.462Z,9.39
2019-02-27T08:24:22.436Z,9.36
2019-02-27T08:25:21.503Z,9.42
2019-02-27T08:26:21.489Z,9.40
2019-02-27T08:27:21.501Z,9.46
2019-02-27T08:28:21.514Z,9.39
2019-02-27T08:29:21.525Z,9.54
2019-02-27T08:30:21.544Z,9.56
2019-02-27T08:31:21.555Z,9.71
2019-02-27T08:32:21.561Z,9.89
2019-02-27T08:33:21.574Z,9.94
2019-02-27T08:34:21.591Z,9.61
2019-02-27T08:35:21.603Z,9.48
2019-02-27T08:36:21.610Z,9.42
2019-02-27T08:37:21.626Z,9.35
2019-02-27T08:38:23.514Z,9.47
2019-02-27T08:39:21.652Z,9.54
2019-02-27T08:40:24.215Z,9.54
2019-02-27T08:41:21.677Z,9.53
2019-02-27T08:42:21.685Z,9.64
2019-02-27T08:43:21.696Z,9.83
2019-02-27T08:44:21.708Z,10.02
2019-02-27T08:45:26.720Z,10.14
2019-02-27T08:46:21.736Z,10.29
2019-02-27T08:47:21.748Z,10.45
2019-02-27T08:48:21.758Z,10.61
2019-02-27T08:49:24.177Z,10.73
2019-02-27T08:50:21.789Z,10.44
2019-02-27T08:51:21.799Z,10.22
2019-02-27T08:52:21.812Z,10.22
2019-02-27T08:53:25.998Z,10.02
2019-02-27T08:54:21.832Z,9.89
2019-02-27T08:55:22.465Z,10.17
2019-02-27T08:56:21.861Z,10.27
2019-02-27T08:57:21.871Z,10.29
2019-02-27T08:58:21.887Z,10.07
2019-02-27T08:59:21.896Z,10.01
2019-02-27T09:00:23.289Z,10.15
2019-02-27T09:01:22.427Z,10.14
2019-02-27T09:02:24.151Z,10.30
2019-02-27T09:03:21.955Z,10.33
2019-02-27T09:04:21.964Z,10.48
2019-02-27T09:05:21.982Z,10.76
2019-02-27T09:06:21.991Z,10.66
2019-02-27T09:07:21.997Z,10.66
2019-02-27T09:08:22.011Z,10.74
2019-02-27T09:09:22.035Z,10.68
2019-02-27T09:10:23.191Z,10.67
2019-02-27T09:11:22.059Z,10.56
2019-02-27T09:12:22.067Z,10.71
2019-02-27T09:13:22.081Z,10.96
2019-02-27T09:14:22.089Z,10.79
2019-02-27T09:15:22.103Z,10.68
2019-02-27T09:16:23.097Z,10.79
2019-02-27T09:17:22.135Z,11.02
2019-02-27T09:18:22.947Z,11.03
2019-02-27T09:19:22.155Z,10.89
2019-02-27T09:20:22.174Z,10.89
2019-02-27T09:21:22.181Z,11.04
2019-02-27T09:22:22.195Z,11.14
2019-02-27T09:23:22.255Z,11.29
2019-02-27T09:24:22.220Z,11.44
2019-02-27T09:25:24.532Z,11.49
2019-02-27T09:26:22.249Z,11.46
2019-02-27T09:27:22.261Z,11.96
2019-02-27T09:28:22.273Z,11.98
2019-02-27T09:29:22.293Z,12.02
2019-02-27T09:30:22.299Z,12.05
2019-02-27T09:31:22.314Z,11.94
2019-02-27T09:32:22.331Z,11.69
2019-02-27T09:33:22.343Z,11.69
2019-02-27T09:34:26.654Z,11.64
2019-02-27T09:35:22.367Z,11.85
2019-02-27T09:36:22.381Z,11.95
2019-02-27T09:37:22.400Z,11.99
2019-02-27T09:38:24.324Z,11.83
2019-02-27T09:39:22.422Z,11.72
2019-02-27T09:40:22.438Z,11.78
2019-02-27T09:41:22.450Z,11.91
2019-02-27T09:42:22.464Z,12.02
2019-02-27T09:43:24.181Z,11.67
2019-02-27T09:44:22.492Z,11.72
2019-02-27T09:45:22.510Z,11.95
2019-02-27T09:46:22.519Z,11.98
2019-02-27T09:47:25.422Z,11.98
2019-02-27T09:48:22.552Z,11.98
2019-02-27T09:49:22.570Z,11.99
2019-02-27T09:50:22.585Z,12.07
2019-02-27T09:51:22.906Z,12.05
2019-02-27T09:52:23.731Z,12.23
2019-02-27T09:53:22.624Z,12.42
2019-02-27T09:54:22.648Z,12.54
2019-02-27T09:55:22.656Z,12.92
2019-02-27T09:56:22.664Z,13.11
2019-02-27T09:57:22.681Z,12.93
2019-02-27T09:58:22.858Z,12.96
2019-02-27T09:59:22.722Z,12.95
2019-02-27T10:00:25.915Z,13.14
2019-02-27T10:01:22.743Z,13.11
2019-02-27T10:02:22.753Z,13.30
2019-02-27T10:03:22.764Z,13.10
2019-02-27T10:04:22.780Z,13.64
2019-02-27T10:05:22.797Z,13.66
2019-02-27T10:06:22.817Z,13.73
2019-02-27T10:07:22.824Z,13.70
2019-02-27T10:08:25.390Z,13.60
2019-02-27T10:09:22.870Z,13.54
2019-02-27T10:10:22.870Z,13.64
2019-02-27T10:11:22.892Z,13.64
2019-02-27T10:12:27.130Z,13.25
2019-02-27T10:13:22.921Z,13.19
2019-02-27T10:14:22.932Z,13.30
2019-02-27T10:15:25.231Z,13.36
2019-02-27T10:16:22.966Z,13.26
2019-02-27T10:17:22.977Z,13.08
2019-02-27T10:18:22.996Z,13.11
2019-02-27T10:19:23.011Z,13.22
2019-02-27T10:20:23.033Z,13.20
2019-02-27T10:21:23.045Z,13.05
2019-02-27T10:22:24.607Z,13.28
2019-02-27T10:23:23.077Z,13.49
2019-02-27T10:24:23.086Z,13.10
2019-02-27T10:25:23.103Z,13.38
2019-02-27T10:26:23.119Z,13.12
2019-02-27T10:27:28.418Z,13.33
2019-02-27T10:28:23.151Z,13.51
2019-02-27T10:29:23.167Z,13.89
2019-02-27T10:30:23.178Z,13.97
2019-02-27T10:31:25.968Z,13.62
2019-02-27T10:32:23.215Z,13.87
2019-02-27T10:33:23.227Z,14.12
2019-02-27T10:34:23.245Z,13.89
2019-02-27T10:35:23.263Z,13.73
2019-02-27T10:36:23.281Z,13.85
2019-02-27T10:37:23.495Z,13.57
2019-02-27T10:38:26.152Z,13.70
2019-02-27T10:39:23.324Z,14.12
2019-02-27T10:40:23.341Z,14.18
2019-02-27T10:41:23.361Z,14.45
2019-02-27T10:42:23.369Z,14.51
2019-02-27T10:43:23.390Z,14.46
2019-02-27T10:44:23.404Z,14.65
2019-02-27T10:45:23.419Z,14.88
2019-02-27T10:46:24.281Z,14.78
2019-02-27T10:47:23.454Z,14.45
2019-02-27T10:48:23.467Z,14.28
2019-02-27T10:49:23.489Z,14.51
2019-02-27T10:50:23.499Z,14.65
2019-02-27T10:51:23.521Z,14.43
2019-02-27T10:52:24.265Z,14.43
2019-02-27T10:53:27.100Z,14.69
2019-02-27T10:54:23.564Z,14.45
2019-02-27T10:55:23.587Z,14.03
2019-02-27T10:56:24.257Z,13.73
2019-02-27T10:57:23.629Z,13.85
2019-02-27T10:58:24.679Z,13.88
2019-02-27T10:59:23.653Z,13.88
2019-02-27T11:00:25.095Z,14.52
2019-02-27T11:01:23.687Z,14.69
2019-02-27T11:02:23.765Z,14.42
2019-02-27T11:03:27.248Z,14.37
2019-02-27T11:04:23.741Z,14.61
2019-02-27T11:05:23.759Z,14.14
2019-02-27T11:06:23.770Z,14.22
2019-02-27T11:07:23.785Z,14.22
2019-02-27T11:08:23.805Z,14.51
2019-02-27T11:09:23.817Z,14.45
2019-02-27T11:10:23.836Z,14.40
2019-02-27T11:11:23.854Z,14.28
2019-02-27T11:12:23.870Z,14.27
2019-02-27T11:13:23.888Z,14.62
2019-02-27T11:14:23.902Z,14.73
2019-02-27T11:15:23.921Z,14.84
2019-02-27T11:16:23.934Z,14.92
2019-02-27T11:17:23.956Z,15.14
2019-02-27T11:18:23.971Z,15.23
2019-02-27T11:19:23.984Z,14.94
2019-02-27T11:20:24.758Z,14.72
2019-02-27T11:21:24.020Z,14.33
2019-02-27T11:22:24.035Z,14.40
2019-02-27T11:23:24.055Z,14.62
2019-02-27T11:24:24.752Z,14.96
2019-02-27T11:25:24.104Z,15.10
2019-02-27T11:26:24.107Z,14.46
2019-02-27T11:27:24.122Z,14.58
2019-02-27T11:28:24.141Z,14.77
2019-02-27T11:29:24.437Z,14.95
2019-02-27T11:30:24.179Z,14.69
2019-02-27T11:31:24.190Z,14.65
2019-02-27T11:32:24.213Z,14.47
2019-02-27T11:33:25.939Z,14.81
2019-02-27T11:34:24.246Z,14.96
2019-02-27T11:35:25.195Z,15.14
2019-02-27T11:36:24.277Z,15.09
2019-02-27T11:37:24.299Z,15.14
2019-02-27T11:38:25.347Z,15.47
2019-02-27T11:39:24.331Z,15.09
2019-02-27T11:40:24.351Z,15.53
2019-02-27T11:41:24.368Z,14.96
2019-02-27T11:42:24.384Z,15.16
2019-02-27T11:43:24.402Z,15.11
2019-02-27T11:44:24.421Z,15.20
2019-02-27T11:45:24.888Z,15.03
2019-02-27T11:46:24.458Z,15.46
2019-02-27T11:47:24.470Z,15.29
2019-02-27T11:48:24.491Z,15.44
2019-02-27T11:49:24.505Z,15.74
2019-02-27T11:50:24.522Z,15.65
2019-02-27T11:51:24.540Z,15.41
2019-02-27T11:52:27.881Z,15.35
2019-02-27T11:53:24.580Z,15.34
2019-02-27T11:54:24.592Z,15.38
2019-02-27T11:55:24.726Z,15.31
2019-02-27T11:56:24.634Z,15.35
2019-02-27T11:57:27.292Z,15.41
2019-02-27T11:58:24.669Z,15.54
2019-02-27T11:59:24.691Z,15.67
2019-02-27T12:00:24.763Z,15.07
2019-02-27T12:01:24.727Z,14.81
2019-02-27T12:02:29.079Z,14.62
2019-02-27T12:03:24.757Z,14.96
2019-02-27T12:04:24.773Z,15.20
2019-02-27T12:05:24.794Z,15.25
2019-02-27T12:06:24.809Z,15.56
2019-02-27T12:07:24.827Z,15.17
2019-02-27T12:08:26.681Z,15.68
2019-02-27T12:09:24.868Z,16.23
2019-02-27T12:10:24.880Z,16.09
2019-02-27T12:11:24.900Z,15.83
2019-02-27T12:12:24.924Z,15.89
2019-02-27T12:13:24.935Z,15.89
2019-02-27T12:14:24.962Z,15.60
2019-02-27T12:15:24.974Z,15.54
2019-02-27T12:16:24.993Z,15.62
2019-02-27T12:17:25.727Z,16.02
2019-02-27T12:18:25.032Z,15.59
2019-02-27T12:19:25.045Z,15.83
2019-02-27T12:20:25.063Z,16.73
2019-02-27T12:21:26.228Z,16.45
2019-02-27T12:22:25.105Z,16.42
2019-02-27T12:23:25.128Z,16.66
2019-02-27T12:24:25.137Z,16.70
2019-02-27T12:25:29.187Z,17.08
2019-02-27T12:26:25.177Z,16.75
2019-02-27T12:27:47.931Z,16.43
2019-02-27T12:28:25.214Z,16.08
2019-02-27T12:29:26.557Z,15.93
2019-02-27T12:30:25.254Z,15.84
2019-02-27T12:31:25.265Z,16.41
2019-02-27T12:32:25.290Z,16.66
2019-02-27T12:33:29.206Z,16.64
2019-02-27T12:34:25.321Z,16.46
2019-02-27T12:35:25.345Z,16.27
2019-02-27T12:36:25.363Z,16.24
2019-02-27T12:37:28.361Z,15.97
2019-02-27T12:38:25.398Z,16.09
2019-02-27T12:39:25.421Z,16.31
2019-02-27T12:40:25.451Z,16.42
2019-02-27T12:41:25.459Z,16.83
2019-02-27T12:42:25.478Z,16.83
2019-02-27T12:43:25.499Z,15.82
2019-02-27T12:44:25.516Z,15.90
2019-02-27T12:45:26.512Z,16.14
2019-02-27T12:46:25.550Z,15.90
2019-02-27T12:47:25.574Z,16.30
2019-02-27T12:48:25.588Z,16.63
2019-02-27T12:49:25.607Z,16.61
2019-02-27T12:50:26.846Z,16.56
2019-02-27T12:51:25.646Z,16.61
2019-02-27T12:52:25.670Z,16.46
2019-02-27T12:53:25.685Z,16.42
2019-02-27T12:54:26.819Z,16.34
2019-02-27T12:55:25.732Z,16.17
2019-02-27T12:56:25.744Z,16.34
2019-02-27T12:57:25.767Z,16.41
2019-02-27T12:58:25.780Z,16.08
2019-02-27T12:59:25.813Z,16.31
2019-02-27T13:00:25.825Z,16.82
2019-02-27T13:01:25.841Z,16.97
2019-02-27T13:02:35.224Z,17.15
2019-02-27T13:03:25.879Z,16.89
2019-02-27T13:04:25.899Z,16.83
2019-02-27T13:05:27.286Z,16.66
2019-02-27T13:06:25.931Z,16.28
2019-02-27T13:07:27.704Z,16.31
2019-02-27T13:08:25.972Z,16.70
2019-02-27T13:09:25.989Z,16.83